sensor_id;sensor_type;location;lat;lon;timestamp;P1;durP1;ratioP1;P2;durP2;ratioP2
5688;SDS011;2869;50.432;8.680;2022-10-13T00:00:41;26.70;;;15.37;;
5688;SDS011;2869;50.432;8.680;2022-10-13T00:03:09;19.23;;;13.50;;
5688;SDS011;2869;50.432;8.680;2022-10-13T00:05:38;25.43;;;15.20;;
5688;SDS011;2869;50.432;8.680;2022-10-13T00:08:06;21.80;;;14.10;;
5688;SDS011;2869;50.432;8.680;2022-10-13T00:10:36;27.53;;;15.27;;
5688;SDS011;2869;50.432;8.680;2022-10-13T00:13:04;22.53;;;14.17;;
5688;SDS011;2869;50.432;8.680;2022-10-13T00:15:31;19.33;;;12.97;;
5688;SDS011;2869;50.432;8.680;2022-10-13T00:17:58;32.53;;;14.50;;
5688;SDS011;2869;50.432;8.680;2022-10-13T00:20:25;30.07;;;16.13;;
5688;SDS011;2869;50.432;8.680;2022-10-13T00:22:51;25.80;;;15.07;;
5688;SDS011;2869;50.432;8.680;2022-10-13T00:25:18;24.17;;;15.83;;
5688;SDS011;2869;50.432;8.680;2022-10-13T00:27:46;24.30;;;14.20;;
5688;SDS011;2869;50.432;8.680;2022-10-13T00:30:13;25.87;;;15.20;;
5688;SDS011;2869;50.432;8.680;2022-10-13T00:32:40;24.67;;;15.70;;
5688;SDS011;2869;50.432;8.680;2022-10-13T00:35:06;27.03;;;14.03;;
5688;SDS011;2869;50.432;8.680;2022-10-13T00:37:34;31.30;;;14.20;;
5688;SDS011;2869;50.432;8.680;2022-10-13T00:40:00;23.07;;;13.97;;
5688;SDS011;2869;50.432;8.680;2022-10-13T00:42:28;27.97;;;15.20;;
5688;SDS011;2869;50.432;8.680;2022-10-13T00:45:04;29.30;;;16.10;;
5688;SDS011;2869;50.432;8.680;2022-10-13T00:47:32;30.00;;;16.40;;
5688;SDS011;2869;50.432;8.680;2022-10-13T00:50:02;23.97;;;15.43;;
5688;SDS011;2869;50.432;8.680;2022-10-13T00:52:30;26.43;;;16.10;;
5688;SDS011;2869;50.432;8.680;2022-10-13T00:54:59;26.00;;;14.27;;
5688;SDS011;2869;50.432;8.680;2022-10-13T00:57:27;23.83;;;15.40;;
5688;SDS011;2869;50.432;8.680;2022-10-13T00:59:54;30.67;;;15.60;;
5688;SDS011;2869;50.432;8.680;2022-10-13T01:02:23;27.63;;;16.97;;
5688;SDS011;2869;50.432;8.680;2022-10-13T01:04:56;28.23;;;15.37;;
5688;SDS011;2869;50.432;8.680;2022-10-13T01:07:24;24.60;;;14.90;;
5688;SDS011;2869;50.432;8.680;2022-10-13T01:09:51;26.07;;;15.97;;
5688;SDS011;2869;50.432;8.680;2022-10-13T01:12:22;31.17;;;16.80;;
5688;SDS011;2869;50.432;8.680;2022-10-13T01:14:56;28.97;;;14.77;;
5688;SDS011;2869;50.432;8.680;2022-10-13T01:17:32;28.57;;;15.60;;
5688;SDS011;2869;50.432;8.680;2022-10-13T01:20:10;32.40;;;17.00;;
5688;SDS011;2869;50.432;8.680;2022-10-13T01:22:55;43.13;;;16.47;;
5688;SDS011;2869;50.432;8.680;2022-10-13T01:25:40;71.00;;;18.50;;
5688;SDS011;2869;50.432;8.680;2022-10-13T01:28:21;59.17;;;17.13;;
5688;SDS011;2869;50.432;8.680;2022-10-13T01:31:01;71.63;;;18.47;;
5688;SDS011;2869;50.432;8.680;2022-10-13T01:33:35;68.67;;;17.80;;
5688;SDS011;2869;50.432;8.680;2022-10-13T01:36:11;65.03;;;18.90;;
5688;SDS011;2869;50.432;8.680;2022-10-13T01:38:44;53.47;;;17.70;;
5688;SDS011;2869;50.432;8.680;2022-10-13T01:41:19;44.43;;;17.87;;
5688;SDS011;2869;50.432;8.680;2022-10-13T01:43:51;79.63;;;18.47;;
5688;SDS011;2869;50.432;8.680;2022-10-13T01:46:24;68.10;;;18.57;;
5688;SDS011;2869;50.432;8.680;2022-10-13T01:48:54;65.00;;;18.33;;
5688;SDS011;2869;50.432;8.680;2022-10-13T01:51:24;63.97;;;18.90;;
5688;SDS011;2869;50.432;8.680;2022-10-13T01:53:52;49.00;;;17.97;;
5688;SDS011;2869;50.432;8.680;2022-10-13T01:56:18;43.03;;;15.97;;
5688;SDS011;2869;50.432;8.680;2022-10-13T01:58:45;57.50;;;16.77;;
5688;SDS011;2869;50.432;8.680;2022-10-13T02:01:23;83.90;;;18.13;;
5688;SDS011;2869;50.432;8.680;2022-10-13T02:04:11;104.97;;;18.17;;
5688;SDS011;2869;50.432;8.680;2022-10-13T02:06:46;61.63;;;17.40;;
5688;SDS011;2869;50.432;8.680;2022-10-13T02:09:19;81.00;;;16.87;;
5688;SDS011;2869;50.432;8.680;2022-10-13T02:11:51;68.87;;;16.50;;
5688;SDS011;2869;50.432;8.680;2022-10-13T02:14:25;40.00;;;17.50;;
5688;SDS011;2869;50.432;8.680;2022-10-13T02:16:56;49.30;;;15.70;;
5688;SDS011;2869;50.432;8.680;2022-10-13T02:19:27;34.93;;;16.77;;
5688;SDS011;2869;50.432;8.680;2022-10-13T02:21:55;43.97;;;16.90;;
5688;SDS011;2869;50.432;8.680;2022-10-13T02:24:22;60.00;;;17.27;;
5688;SDS011;2869;50.432;8.680;2022-10-13T02:26:49;71.77;;;17.43;;
5688;SDS011;2869;50.432;8.680;2022-10-13T02:29:16;48.70;;;17.70;;
5688;SDS011;2869;50.432;8.680;2022-10-13T02:31:44;44.10;;;17.87;;
5688;SDS011;2869;50.432;8.680;2022-10-13T02:34:13;33.73;;;16.80;;
5688;SDS011;2869;50.432;8.680;2022-10-13T02:36:40;25.10;;;16.70;;
5688;SDS011;2869;50.432;8.680;2022-10-13T02:39:07;28.73;;;15.97;;
5688;SDS011;2869;50.432;8.680;2022-10-13T02:41:35;36.50;;;15.70;;
5688;SDS011;2869;50.432;8.680;2022-10-13T02:44:02;24.90;;;15.90;;
5688;SDS011;2869;50.432;8.680;2022-10-13T02:46:29;23.70;;;15.03;;
5688;SDS011;2869;50.432;8.680;2022-10-13T02:48:56;29.47;;;16.57;;
5688;SDS011;2869;50.432;8.680;2022-10-13T02:51:24;25.33;;;15.20;;
5688;SDS011;2869;50.432;8.680;2022-10-13T02:53:51;27.30;;;16.20;;
5688;SDS011;2869;50.432;8.680;2022-10-13T02:56:18;25.57;;;15.73;;
5688;SDS011;2869;50.432;8.680;2022-10-13T02:58:44;28.60;;;15.60;;
5688;SDS011;2869;50.432;8.680;2022-10-13T03:01:12;26.60;;;16.90;;
5688;SDS011;2869;50.432;8.680;2022-10-13T03:03:39;45.10;;;16.77;;
5688;SDS011;2869;50.432;8.680;2022-10-13T03:06:06;53.60;;;16.20;;
5688;SDS011;2869;50.432;8.680;2022-10-13T03:08:35;29.83;;;17.50;;
5688;SDS011;2869;50.432;8.680;2022-10-13T03:11:03;31.73;;;17.77;;
5688;SDS011;2869;50.432;8.680;2022-10-13T03:13:29;31.43;;;16.70;;
5688;SDS011;2869;50.432;8.680;2022-10-13T03:15:56;26.27;;;17.00;;
5688;SDS011;2869;50.432;8.680;2022-10-13T03:18:23;34.83;;;17.10;;
5688;SDS011;2869;50.432;8.680;2022-10-13T03:20:56;28.20;;;17.47;;
5688;SDS011;2869;50.432;8.680;2022-10-13T03:23:25;29.17;;;17.77;;
5688;SDS011;2869;50.432;8.680;2022-10-13T03:25:53;26.60;;;16.77;;
5688;SDS011;2869;50.432;8.680;2022-10-13T03:28:21;31.43;;;17.37;;
5688;SDS011;2869;50.432;8.680;2022-10-13T03:30:48;28.27;;;16.67;;
5688;SDS011;2869;50.432;8.680;2022-10-13T03:33:15;29.67;;;18.03;;
5688;SDS011;2869;50.432;8.680;2022-10-13T03:35:41;37.87;;;18.00;;
5688;SDS011;2869;50.432;8.680;2022-10-13T03:38:08;32.00;;;17.23;;
5688;SDS011;2869;50.432;8.680;2022-10-13T03:40:35;28.90;;;15.80;;
5688;SDS011;2869;50.432;8.680;2022-10-13T03:43:03;28.07;;;15.33;;
5688;SDS011;2869;50.432;8.680;2022-10-13T03:45:29;27.13;;;16.37;;
5688;SDS011;2869;50.432;8.680;2022-10-13T03:47:56;29.40;;;16.60;;
5688;SDS011;2869;50.432;8.680;2022-10-13T03:50:23;30.80;;;15.87;;
5688;SDS011;2869;50.432;8.680;2022-10-13T03:52:50;30.47;;;15.10;;
5688;SDS011;2869;50.432;8.680;2022-10-13T03:55:17;28.37;;;14.97;;
5688;SDS011;2869;50.432;8.680;2022-10-13T03:57:43;28.50;;;15.83;;
5688;SDS011;2869;50.432;8.680;2022-10-13T04:00:12;31.33;;;15.83;;
5688;SDS011;2869;50.432;8.680;2022-10-13T04:02:40;28.37;;;15.60;;
5688;SDS011;2869;50.432;8.680;2022-10-13T04:05:07;28.93;;;16.60;;
5688;SDS011;2869;50.432;8.680;2022-10-13T04:07:34;30.77;;;15.80;;
5688;SDS011;2869;50.432;8.680;2022-10-13T04:10:01;35.87;;;17.43;;
5688;SDS011;2869;50.432;8.680;2022-10-13T04:12:28;33.30;;;16.70;;
5688;SDS011;2869;50.432;8.680;2022-10-13T04:14:54;35.37;;;18.10;;
5688;SDS011;2869;50.432;8.680;2022-10-13T04:17:23;34.17;;;18.93;;
5688;SDS011;2869;50.432;8.680;2022-10-13T04:19:49;46.63;;;18.20;;
5688;SDS011;2869;50.432;8.680;2022-10-13T04:22:16;90.83;;;18.53;;
5688;SDS011;2869;50.432;8.680;2022-10-13T04:24:43;51.90;;;19.00;;
5688;SDS011;2869;50.432;8.680;2022-10-13T04:27:09;48.90;;;19.90;;
5688;SDS011;2869;50.432;8.680;2022-10-13T04:29:36;48.30;;;19.63;;
5688;SDS011;2869;50.432;8.680;2022-10-13T04:32:03;63.60;;;18.40;;
5688;SDS011;2869;50.432;8.680;2022-10-13T04:34:31;39.53;;;17.60;;
5688;SDS011;2869;50.432;8.680;2022-10-13T04:36:57;59.83;;;20.17;;
5688;SDS011;2869;50.432;8.680;2022-10-13T04:39:24;36.40;;;17.97;;
5688;SDS011;2869;50.432;8.680;2022-10-13T04:41:51;30.20;;;17.53;;
5688;SDS011;2869;50.432;8.680;2022-10-13T04:44:18;56.97;;;18.87;;
5688;SDS011;2869;50.432;8.680;2022-10-13T04:46:44;38.17;;;17.20;;
5688;SDS011;2869;50.432;8.680;2022-10-13T04:49:11;31.73;;;16.20;;
5688;SDS011;2869;50.432;8.680;2022-10-13T04:51:40;32.43;;;17.33;;
5688;SDS011;2869;50.432;8.680;2022-10-13T04:54:07;31.20;;;16.43;;
5688;SDS011;2869;50.432;8.680;2022-10-13T04:56:34;29.63;;;16.50;;
5688;SDS011;2869;50.432;8.680;2022-10-13T04:59:01;35.43;;;17.27;;
5688;SDS011;2869;50.432;8.680;2022-10-13T05:01:30;45.13;;;18.27;;
5688;SDS011;2869;50.432;8.680;2022-10-13T05:03:58;36.40;;;18.27;;
5688;SDS011;2869;50.432;8.680;2022-10-13T05:06:27;50.23;;;17.90;;
5688;SDS011;2869;50.432;8.680;2022-10-13T05:08:56;72.50;;;19.83;;
5688;SDS011;2869;50.432;8.680;2022-10-13T05:11:23;40.37;;;19.17;;
5688;SDS011;2869;50.432;8.680;2022-10-13T05:13:51;41.57;;;18.37;;
5688;SDS011;2869;50.432;8.680;2022-10-13T05:16:18;43.47;;;19.10;;
5688;SDS011;2869;50.432;8.680;2022-10-13T05:18:46;55.63;;;17.77;;
5688;SDS011;2869;50.432;8.680;2022-10-13T05:21:14;61.07;;;18.07;;
5688;SDS011;2869;50.432;8.680;2022-10-13T05:23:42;52.73;;;18.87;;
5688;SDS011;2869;50.432;8.680;2022-10-13T05:26:11;68.63;;;18.93;;
5688;SDS011;2869;50.432;8.680;2022-10-13T05:28:39;32.40;;;17.87;;
5688;SDS011;2869;50.432;8.680;2022-10-13T05:31:09;70.10;;;19.23;;
5688;SDS011;2869;50.432;8.680;2022-10-13T05:33:36;80.10;;;18.87;;
5688;SDS011;2869;50.432;8.680;2022-10-13T05:36:04;75.10;;;19.37;;
5688;SDS011;2869;50.432;8.680;2022-10-13T05:38:32;47.23;;;19.57;;
5688;SDS011;2869;50.432;8.680;2022-10-13T05:41:02;62.13;;;19.50;;
5688;SDS011;2869;50.432;8.680;2022-10-13T05:43:31;51.37;;;18.87;;
5688;SDS011;2869;50.432;8.680;2022-10-13T05:45:58;98.77;;;19.70;;
5688;SDS011;2869;50.432;8.680;2022-10-13T05:48:26;104.03;;;19.97;;
5688;SDS011;2869;50.432;8.680;2022-10-13T05:50:53;67.37;;;19.10;;
5688;SDS011;2869;50.432;8.680;2022-10-13T05:53:22;102.33;;;19.10;;
5688;SDS011;2869;50.432;8.680;2022-10-13T05:55:51;66.33;;;19.63;;
5688;SDS011;2869;50.432;8.680;2022-10-13T05:58:21;70.33;;;19.37;;
5688;SDS011;2869;50.432;8.680;2022-10-13T06:00:49;156.63;;;20.37;;
5688;SDS011;2869;50.432;8.680;2022-10-13T06:03:19;172.40;;;20.10;;
5688;SDS011;2869;50.432;8.680;2022-10-13T06:05:48;220.77;;;20.60;;
5688;SDS011;2869;50.432;8.680;2022-10-13T06:08:14;159.03;;;19.20;;
5688;SDS011;2869;50.432;8.680;2022-10-13T06:10:42;149.63;;;22.00;;
5688;SDS011;2869;50.432;8.680;2022-10-13T06:13:10;156.50;;;20.00;;
5688;SDS011;2869;50.432;8.680;2022-10-13T06:15:36;223.87;;;20.77;;
5688;SDS011;2869;50.432;8.680;2022-10-13T06:18:07;262.63;;;21.80;;
5688;SDS011;2869;50.432;8.680;2022-10-13T06:20:34;69.97;;;17.60;;
5688;SDS011;2869;50.432;8.680;2022-10-13T06:23:01;200.57;;;21.20;;
5688;SDS011;2869;50.432;8.680;2022-10-13T06:25:28;151.60;;;19.83;;
5688;SDS011;2869;50.432;8.680;2022-10-13T06:27:55;188.80;;;21.37;;
5688;SDS011;2869;50.432;8.680;2022-10-13T06:30:22;117.70;;;18.47;;
5688;SDS011;2869;50.432;8.680;2022-10-13T06:32:48;156.83;;;19.93;;
5688;SDS011;2869;50.432;8.680;2022-10-13T06:35:16;87.50;;;18.83;;
5688;SDS011;2869;50.432;8.680;2022-10-13T06:37:43;128.30;;;18.93;;
5688;SDS011;2869;50.432;8.680;2022-10-13T06:40:12;109.90;;;19.43;;
5688;SDS011;2869;50.432;8.680;2022-10-13T06:42:39;137.17;;;18.80;;
5688;SDS011;2869;50.432;8.680;2022-10-13T06:45:06;154.13;;;19.53;;
5688;SDS011;2869;50.432;8.680;2022-10-13T06:47:33;39.00;;;17.30;;
5688;SDS011;2869;50.432;8.680;2022-10-13T06:50:00;135.00;;;19.17;;
5688;SDS011;2869;50.432;8.680;2022-10-13T06:52:28;130.10;;;19.67;;
5688;SDS011;2869;50.432;8.680;2022-10-13T06:54:55;167.27;;;19.67;;
5688;SDS011;2869;50.432;8.680;2022-10-13T06:57:21;100.63;;;18.53;;
5688;SDS011;2869;50.432;8.680;2022-10-13T06:59:48;60.63;;;19.83;;
5688;SDS011;2869;50.432;8.680;2022-10-13T07:02:16;84.90;;;18.90;;
5688;SDS011;2869;50.432;8.680;2022-10-13T07:04:43;161.73;;;19.70;;
5688;SDS011;2869;50.432;8.680;2022-10-13T07:07:11;132.23;;;20.73;;
5688;SDS011;2869;50.432;8.680;2022-10-13T07:09:39;83.17;;;18.90;;
5688;SDS011;2869;50.432;8.680;2022-10-13T07:12:06;77.63;;;20.00;;
5688;SDS011;2869;50.432;8.680;2022-10-13T07:14:33;121.23;;;19.17;;
5688;SDS011;2869;50.432;8.680;2022-10-13T07:17:00;147.17;;;20.03;;
5688;SDS011;2869;50.432;8.680;2022-10-13T07:19:26;160.63;;;21.17;;
5688;SDS011;2869;50.432;8.680;2022-10-13T07:21:53;132.07;;;21.33;;
5688;SDS011;2869;50.432;8.680;2022-10-13T07:24:20;110.50;;;20.67;;
5688;SDS011;2869;50.432;8.680;2022-10-13T07:26:48;173.97;;;21.50;;
5688;SDS011;2869;50.432;8.680;2022-10-13T07:29:15;89.00;;;21.63;;
5688;SDS011;2869;50.432;8.680;2022-10-13T07:31:41;184.33;;;22.03;;
5688;SDS011;2869;50.432;8.680;2022-10-13T07:34:09;124.63;;;22.07;;
5688;SDS011;2869;50.432;8.680;2022-10-13T07:36:36;200.60;;;25.63;;
5688;SDS011;2869;50.432;8.680;2022-10-13T07:39:05;184.47;;;23.30;;
5688;SDS011;2869;50.432;8.680;2022-10-13T07:41:32;205.63;;;23.87;;
5688;SDS011;2869;50.432;8.680;2022-10-13T07:44:01;149.00;;;24.53;;
5688;SDS011;2869;50.432;8.680;2022-10-13T07:46:27;169.23;;;23.43;;
5688;SDS011;2869;50.432;8.680;2022-10-13T07:48:54;209.17;;;24.50;;
5688;SDS011;2869;50.432;8.680;2022-10-13T07:51:21;158.70;;;23.63;;
5688;SDS011;2869;50.432;8.680;2022-10-13T07:53:48;186.57;;;26.30;;
5688;SDS011;2869;50.432;8.680;2022-10-13T07:56:15;157.97;;;23.57;;
5688;SDS011;2869;50.432;8.680;2022-10-13T07:58:43;124.43;;;22.47;;
5688;SDS011;2869;50.432;8.680;2022-10-13T08:01:12;132.47;;;24.20;;
5688;SDS011;2869;50.432;8.680;2022-10-13T08:03:40;195.03;;;27.70;;
5688;SDS011;2869;50.432;8.680;2022-10-13T08:06:07;122.67;;;24.07;;
5688;SDS011;2869;50.432;8.680;2022-10-13T08:08:35;140.93;;;27.33;;
5688;SDS011;2869;50.432;8.680;2022-10-13T08:11:02;159.57;;;25.27;;
5688;SDS011;2869;50.432;8.680;2022-10-13T08:13:30;134.07;;;24.27;;
5688;SDS011;2869;50.432;8.680;2022-10-13T08:15:58;137.73;;;24.53;;
5688;SDS011;2869;50.432;8.680;2022-10-13T08:18:27;148.17;;;26.10;;
5688;SDS011;2869;50.432;8.680;2022-10-13T08:20:54;117.93;;;27.13;;
5688;SDS011;2869;50.432;8.680;2022-10-13T08:23:20;153.33;;;26.70;;
5688;SDS011;2869;50.432;8.680;2022-10-13T08:25:47;138.70;;;25.77;;
5688;SDS011;2869;50.432;8.680;2022-10-13T08:28:15;122.03;;;28.20;;
5688;SDS011;2869;50.432;8.680;2022-10-13T08:30:43;124.50;;;26.20;;
5688;SDS011;2869;50.432;8.680;2022-10-13T08:33:10;148.97;;;28.50;;
5688;SDS011;2869;50.432;8.680;2022-10-13T08:35:39;114.37;;;28.23;;
5688;SDS011;2869;50.432;8.680;2022-10-13T08:38:06;91.60;;;26.67;;
5688;SDS011;2869;50.432;8.680;2022-10-13T08:40:33;122.90;;;27.37;;
5688;SDS011;2869;50.432;8.680;2022-10-13T08:43:03;130.00;;;28.57;;
5688;SDS011;2869;50.432;8.680;2022-10-13T08:45:31;112.80;;;30.07;;
5688;SDS011;2869;50.432;8.680;2022-10-13T08:47:58;84.47;;;28.67;;
5688;SDS011;2869;50.432;8.680;2022-10-13T08:50:28;149.43;;;29.27;;
5688;SDS011;2869;50.432;8.680;2022-10-13T08:52:59;105.70;;;29.70;;
5688;SDS011;2869;50.432;8.680;2022-10-13T08:55:31;104.77;;;31.00;;
5688;SDS011;2869;50.432;8.680;2022-10-13T08:58:00;117.87;;;29.07;;
5688;SDS011;2869;50.432;8.680;2022-10-13T09:00:31;90.83;;;29.30;;
5688;SDS011;2869;50.432;8.680;2022-10-13T09:02:58;90.63;;;30.33;;
5688;SDS011;2869;50.432;8.680;2022-10-13T09:05:42;125.90;;;30.30;;
5688;SDS011;2869;50.432;8.680;2022-10-13T09:08:18;81.07;;;28.63;;
5688;SDS011;2869;50.432;8.680;2022-10-13T09:10:46;94.20;;;27.93;;
5688;SDS011;2869;50.432;8.680;2022-10-13T09:13:13;139.87;;;33.07;;
5688;SDS011;2869;50.432;8.680;2022-10-13T09:15:43;103.73;;;30.13;;
5688;SDS011;2869;50.432;8.680;2022-10-13T09:18:11;93.37;;;32.50;;
5688;SDS011;2869;50.432;8.680;2022-10-13T09:20:39;96.13;;;31.27;;
5688;SDS011;2869;50.432;8.680;2022-10-13T09:23:08;84.97;;;31.70;;
5688;SDS011;2869;50.432;8.680;2022-10-13T09:25:44;84.67;;;31.47;;
5688;SDS011;2869;50.432;8.680;2022-10-13T09:28:14;113.90;;;33.40;;
5688;SDS011;2869;50.432;8.680;2022-10-13T09:30:43;105.57;;;34.30;;
5688;SDS011;2869;50.432;8.680;2022-10-13T09:33:19;92.33;;;34.30;;
5688;SDS011;2869;50.432;8.680;2022-10-13T09:35:48;112.00;;;35.20;;
5688;SDS011;2869;50.432;8.680;2022-10-13T09:38:36;97.73;;;36.07;;
5688;SDS011;2869;50.432;8.680;2022-10-13T09:41:04;96.63;;;35.30;;
5688;SDS011;2869;50.432;8.680;2022-10-13T09:43:37;100.33;;;36.80;;
5688;SDS011;2869;50.432;8.680;2022-10-13T09:46:10;84.13;;;33.80;;
5688;SDS011;2869;50.432;8.680;2022-10-13T09:48:42;86.97;;;34.43;;
5688;SDS011;2869;50.432;8.680;2022-10-13T09:51:26;89.13;;;35.67;;
5688;SDS011;2869;50.432;8.680;2022-10-13T09:53:58;78.17;;;33.67;;
5688;SDS011;2869;50.432;8.680;2022-10-13T09:56:25;80.20;;;33.07;;
5688;SDS011;2869;50.432;8.680;2022-10-13T09:59:00;95.43;;;34.00;;
5688;SDS011;2869;50.432;8.680;2022-10-13T10:01:36;93.53;;;36.70;;
5688;SDS011;2869;50.432;8.680;2022-10-13T10:04:08;89.27;;;35.83;;
5688;SDS011;2869;50.432;8.680;2022-10-13T10:06:38;88.63;;;35.60;;
5688;SDS011;2869;50.432;8.680;2022-10-13T10:09:15;80.53;;;33.37;;
5688;SDS011;2869;50.432;8.680;2022-10-13T10:11:51;97.63;;;36.30;;
5688;SDS011;2869;50.432;8.680;2022-10-13T10:14:21;80.83;;;34.27;;
5688;SDS011;2869;50.432;8.680;2022-10-13T10:16:52;73.93;;;33.63;;
5688;SDS011;2869;50.432;8.680;2022-10-13T10:19:28;78.73;;;34.37;;
5688;SDS011;2869;50.432;8.680;2022-10-13T10:22:08;81.07;;;34.17;;
5688;SDS011;2869;50.432;8.680;2022-10-13T10:24:43;84.70;;;34.77;;
5688;SDS011;2869;50.432;8.680;2022-10-13T10:27:16;84.43;;;33.87;;
5688;SDS011;2869;50.432;8.680;2022-10-13T10:29:46;90.97;;;35.77;;
5688;SDS011;2869;50.432;8.680;2022-10-13T10:32:20;80.37;;;35.47;;
5688;SDS011;2869;50.432;8.680;2022-10-13T10:34:54;96.10;;;32.00;;
5688;SDS011;2869;50.432;8.680;2022-10-13T10:37:29;89.77;;;35.87;;
5688;SDS011;2869;50.432;8.680;2022-10-13T10:40:13;74.67;;;33.27;;
5688;SDS011;2869;50.432;8.680;2022-10-13T10:42:51;78.93;;;35.63;;
5688;SDS011;2869;50.432;8.680;2022-10-13T10:45:29;77.57;;;33.87;;
5688;SDS011;2869;50.432;8.680;2022-10-13T10:48:01;82.63;;;34.87;;
5688;SDS011;2869;50.432;8.680;2022-10-13T10:50:32;66.70;;;32.50;;
5688;SDS011;2869;50.432;8.680;2022-10-13T10:53:00;73.40;;;34.33;;
5688;SDS011;2869;50.432;8.680;2022-10-13T10:55:33;76.77;;;34.37;;
5688;SDS011;2869;50.432;8.680;2022-10-13T10:58:06;78.17;;;33.27;;
5688;SDS011;2869;50.432;8.680;2022-10-13T11:00:43;72.17;;;32.47;;
5688;SDS011;2869;50.432;8.680;2022-10-13T11:03:18;78.70;;;32.67;;
5688;SDS011;2869;50.432;8.680;2022-10-13T11:06:00;65.47;;;32.17;;
5688;SDS011;2869;50.432;8.680;2022-10-13T11:08:29;62.53;;;30.10;;
5688;SDS011;2869;50.432;8.680;2022-10-13T11:14:27;70.33;;;30.13;;
5688;SDS011;2869;50.432;8.680;2022-10-13T11:17:09;68.03;;;33.13;;
5688;SDS011;2869;50.432;8.680;2022-10-13T11:19:52;71.13;;;29.23;;
5688;SDS011;2869;50.432;8.680;2022-10-13T11:22:19;55.73;;;29.87;;
5688;SDS011;2869;50.432;8.680;2022-10-13T11:24:55;61.10;;;30.00;;
5688;SDS011;2869;50.432;8.680;2022-10-13T11:27:40;61.13;;;28.80;;
5688;SDS011;2869;50.432;8.680;2022-10-13T11:33:31;70.70;;;31.57;;
5688;SDS011;2869;50.432;8.680;2022-10-13T11:42:38;68.60;;;31.47;;
5688;SDS011;2869;50.432;8.680;2022-10-13T11:45:29;73.63;;;31.27;;
5688;SDS011;2869;50.432;8.680;2022-10-13T11:48:11;58.90;;;29.20;;
5688;SDS011;2869;50.432;8.680;2022-10-13T11:51:04;48.70;;;26.90;;
5688;SDS011;2869;50.432;8.680;2022-10-13T11:53:40;53.17;;;26.90;;
5688;SDS011;2869;50.432;8.680;2022-10-13T11:56:17;62.47;;;28.97;;
5688;SDS011;2869;50.432;8.680;2022-10-13T11:58:45;54.97;;;28.67;;
5688;SDS011;2869;50.432;8.680;2022-10-13T12:01:12;59.37;;;28.07;;
5688;SDS011;2869;50.432;8.680;2022-10-13T12:03:42;60.47;;;27.67;;
5688;SDS011;2869;50.432;8.680;2022-10-13T12:06:18;60.83;;;28.17;;
5688;SDS011;2869;50.432;8.680;2022-10-13T12:08:57;50.87;;;27.03;;
5688;SDS011;2869;50.432;8.680;2022-10-13T12:11:25;54.97;;;28.63;;
5688;SDS011;2869;50.432;8.680;2022-10-13T12:13:54;55.20;;;29.10;;
5688;SDS011;2869;50.432;8.680;2022-10-13T12:16:21;65.57;;;28.37;;
5688;SDS011;2869;50.432;8.680;2022-10-13T12:18:49;48.40;;;26.90;;
5688;SDS011;2869;50.432;8.680;2022-10-13T12:21:17;57.63;;;28.13;;
5688;SDS011;2869;50.432;8.680;2022-10-13T12:23:45;58.20;;;29.00;;
5688;SDS011;2869;50.432;8.680;2022-10-13T12:26:14;65.30;;;30.47;;
5688;SDS011;2869;50.432;8.680;2022-10-13T12:28:46;58.63;;;29.77;;
5688;SDS011;2869;50.432;8.680;2022-10-13T12:31:16;55.50;;;27.60;;
5688;SDS011;2869;50.432;8.680;2022-10-13T12:33:51;59.50;;;29.80;;
5688;SDS011;2869;50.432;8.680;2022-10-13T12:36:19;55.93;;;27.33;;
5688;SDS011;2869;50.432;8.680;2022-10-13T12:38:51;63.93;;;29.30;;
5688;SDS011;2869;50.432;8.680;2022-10-13T12:41:22;52.10;;;26.83;;
5688;SDS011;2869;50.432;8.680;2022-10-13T12:43:52;52.43;;;25.57;;
5688;SDS011;2869;50.432;8.680;2022-10-13T12:46:35;41.07;;;21.73;;
5688;SDS011;2869;50.432;8.680;2022-10-13T12:49:05;40.20;;;23.00;;
5688;SDS011;2869;50.432;8.680;2022-10-13T12:51:34;43.47;;;20.53;;
5688;SDS011;2869;50.432;8.680;2022-10-13T12:54:05;42.43;;;19.27;;
5688;SDS011;2869;50.432;8.680;2022-10-13T12:56:33;37.27;;;19.37;;
5688;SDS011;2869;50.432;8.680;2022-10-13T12:59:00;40.47;;;19.70;;
5688;SDS011;2869;50.432;8.680;2022-10-13T13:01:30;32.40;;;17.67;;
5688;SDS011;2869;50.432;8.680;2022-10-13T13:03:59;35.80;;;15.30;;
5688;SDS011;2869;50.432;8.680;2022-10-13T13:06:32;28.73;;;14.50;;
5688;SDS011;2869;50.432;8.680;2022-10-13T13:09:07;33.27;;;16.77;;
5688;SDS011;2869;50.432;8.680;2022-10-13T13:11:46;35.93;;;17.00;;
5688;SDS011;2869;50.432;8.680;2022-10-13T13:14:33;31.00;;;15.53;;
5688;SDS011;2869;50.432;8.680;2022-10-13T13:17:02;19.47;;;13.67;;
5688;SDS011;2869;50.432;8.680;2022-10-13T13:19:31;24.63;;;13.80;;
5688;SDS011;2869;50.432;8.680;2022-10-13T13:22:01;27.07;;;12.93;;
5688;SDS011;2869;50.432;8.680;2022-10-13T13:24:28;26.93;;;13.90;;
5688;SDS011;2869;50.432;8.680;2022-10-13T13:26:55;23.47;;;13.27;;
5688;SDS011;2869;50.432;8.680;2022-10-13T13:29:22;33.07;;;13.87;;
5688;SDS011;2869;50.432;8.680;2022-10-13T13:31:49;21.93;;;14.50;;
5688;SDS011;2869;50.432;8.680;2022-10-13T13:34:15;25.50;;;14.60;;
5688;SDS011;2869;50.432;8.680;2022-10-13T13:36:42;25.93;;;14.20;;
5688;SDS011;2869;50.432;8.680;2022-10-13T13:39:12;30.13;;;15.10;;
5688;SDS011;2869;50.432;8.680;2022-10-13T13:41:42;29.70;;;15.03;;
5688;SDS011;2869;50.432;8.680;2022-10-13T13:44:09;34.53;;;15.90;;
5688;SDS011;2869;50.432;8.680;2022-10-13T13:46:36;29.13;;;15.77;;
5688;SDS011;2869;50.432;8.680;2022-10-13T13:49:03;24.57;;;14.40;;
5688;SDS011;2869;50.432;8.680;2022-10-13T13:51:30;31.37;;;14.53;;
5688;SDS011;2869;50.432;8.680;2022-10-13T13:53:57;26.17;;;14.40;;
5688;SDS011;2869;50.432;8.680;2022-10-13T13:56:25;26.30;;;14.40;;
5688;SDS011;2869;50.432;8.680;2022-10-13T13:58:51;23.50;;;13.43;;
5688;SDS011;2869;50.432;8.680;2022-10-13T14:01:18;27.70;;;14.80;;
5688;SDS011;2869;50.432;8.680;2022-10-13T14:03:45;31.00;;;15.93;;
5688;SDS011;2869;50.432;8.680;2022-10-13T14:06:15;30.90;;;15.90;;
5688;SDS011;2869;50.432;8.680;2022-10-13T14:08:43;27.60;;;16.10;;
5688;SDS011;2869;50.432;8.680;2022-10-13T14:11:10;29.53;;;16.13;;
5688;SDS011;2869;50.432;8.680;2022-10-13T14:13:38;31.73;;;15.87;;
5688;SDS011;2869;50.432;8.680;2022-10-13T14:16:05;33.07;;;16.93;;
5688;SDS011;2869;50.432;8.680;2022-10-13T14:18:32;36.43;;;17.40;;
5688;SDS011;2869;50.432;8.680;2022-10-13T14:20:59;29.40;;;17.77;;
5688;SDS011;2869;50.432;8.680;2022-10-13T14:23:25;43.07;;;18.10;;
5688;SDS011;2869;50.432;8.680;2022-10-13T14:25:52;31.30;;;18.43;;
5688;SDS011;2869;50.432;8.680;2022-10-13T14:28:19;30.70;;;17.80;;
5688;SDS011;2869;50.432;8.680;2022-10-13T14:30:47;33.00;;;17.80;;
5688;SDS011;2869;50.432;8.680;2022-10-13T14:33:13;38.07;;;19.50;;
5688;SDS011;2869;50.432;8.680;2022-10-13T14:35:43;39.33;;;19.70;;
5688;SDS011;2869;50.432;8.680;2022-10-13T14:38:10;39.77;;;18.20;;
5688;SDS011;2869;50.432;8.680;2022-10-13T14:40:39;46.43;;;20.50;;
5688;SDS011;2869;50.432;8.680;2022-10-13T14:43:06;39.50;;;18.60;;
5688;SDS011;2869;50.432;8.680;2022-10-13T14:45:33;34.30;;;19.20;;
5688;SDS011;2869;50.432;8.680;2022-10-13T14:48:01;41.13;;;19.60;;
5688;SDS011;2869;50.432;8.680;2022-10-13T14:50:27;42.23;;;20.10;;
5688;SDS011;2869;50.432;8.680;2022-10-13T14:52:54;41.03;;;20.70;;
5688;SDS011;2869;50.432;8.680;2022-10-13T14:55:21;37.90;;;19.23;;
5688;SDS011;2869;50.432;8.680;2022-10-13T14:57:47;44.60;;;19.73;;
5688;SDS011;2869;50.432;8.680;2022-10-13T15:00:14;35.43;;;18.73;;
5688;SDS011;2869;50.432;8.680;2022-10-13T15:02:41;35.60;;;20.00;;
5688;SDS011;2869;50.432;8.680;2022-10-13T15:05:09;40.87;;;20.13;;
5688;SDS011;2869;50.432;8.680;2022-10-13T15:07:36;35.93;;;18.73;;
5688;SDS011;2869;50.432;8.680;2022-10-13T15:10:03;40.33;;;19.60;;
5688;SDS011;2869;50.432;8.680;2022-10-13T15:12:30;37.10;;;19.20;;